KRNO

Reno / Tahoe International Airport

Reno, Nevada, USA
METAR KRNO 161855Z 17018KT 10SM FEW045 BKN060 BKN110 BKN200 08/M02 A2993 RMK AO2 SLP131 ACSL DSNT NE AND SE-S MTN TOPS OBSCD DSNT SW T00781017 $
Observed Flight Rules
Jan-16 @ 18:55 UTC (27 minutes ago) Visual Flight Rules
Wind Visibility Clouds
170° at 18 knots 10 miles
  • Few at 4,500' AGL
  • Broken at 6,000' AGL
  • Broken at 11,000' AGL
  • Broken at 20,000' AGL
Temperatures Readings
Current 8°C / 46°F
Dewpoint -2°C / 28°F
Humidity 50%
Altimeter 29.93" Hg
Pressure 1013.1 hPa
Elevation 1342
METAR KRNO 161855Z 17018KT 10SM FEW045 BKN060 BKN110 BKN200 08/M02 A2993 RMK AO2 SLP131 ACSL DSNT NE AND SE-S MTN TOPS OBSCD DSNT SW T00781017 $
Observed Flight Rules
Jan-16 @ 18:55 UTC
(27 minutes ago)
VFR
Wind Visibility
170° at 18 knots 10 miles
Clouds
  • Few at 4,500' AGL
  • Broken at 6,000' AGL
  • Broken at 11,000' AGL
  • Broken at 20,000' AGL
Temperature Dewpoint
8°C / 46°F -2°C / 28°F
Humidity Altimeter Pressure
50% 29.93" Hg 1013.1 hPa